createdAt,value
2019-05-22T07:42:38.054Z,8.90
2019-05-22T07:44:42.295Z,9.20
2019-05-22T07:46:46.173Z,9.60
2019-05-22T07:48:50.299Z,8.50
2019-05-22T07:50:55.293Z,8.23
2019-05-22T07:52:59.556Z,8.07
2019-05-22T07:55:05.680Z,8.63
2019-05-22T07:57:10.609Z,8.23
2019-05-22T07:59:14.910Z,7.70
2019-05-22T08:01:20.200Z,8.67
2019-05-22T08:03:24.954Z,6.90
2019-05-22T08:05:30.076Z,8.50
2019-05-22T08:07:36.167Z,7.60
2019-05-22T08:09:42.563Z,7.80
2019-05-22T08:11:48.238Z,8.60
2019-05-22T08:13:53.349Z,7.50
2019-05-22T08:15:57.789Z,7.50
2019-05-22T08:18:02.261Z,7.63
2019-05-22T08:20:06.900Z,8.07
2019-05-22T08:22:11.015Z,6.93
2019-05-22T08:24:15.138Z,7.43
2019-05-22T08:26:20.910Z,7.67
2019-05-22T08:28:25.673Z,7.80
2019-05-22T08:30:30.381Z,8.10
2019-05-22T08:32:36.525Z,7.57
2019-05-22T08:34:41.778Z,7.77
2019-05-22T08:36:48.584Z,8.27
2019-05-22T08:38:53.468Z,7.70
2019-05-22T08:40:59.216Z,8.40
2019-05-22T08:43:02.960Z,8.67
2019-05-22T08:45:08.388Z,8.03
2019-05-22T08:47:12.350Z,8.30
2019-05-22T08:49:16.941Z,8.03
2019-05-22T08:51:21.350Z,8.10
2019-05-22T08:53:25.798Z,8.97
2019-05-22T08:55:30.125Z,8.67
2019-05-22T08:57:36.895Z,8.70
2019-05-22T08:59:40.848Z,8.37
2019-05-22T09:01:44.572Z,7.83
2019-05-22T09:03:48.736Z,7.97
2019-05-22T09:05:52.995Z,7.97
2019-05-22T09:07:56.703Z,7.90
2019-05-22T09:10:00.556Z,8.03
2019-05-22T09:12:05.289Z,8.97
2019-05-22T09:14:09.043Z,7.60
2019-05-22T09:16:14.434Z,7.93
2019-05-22T09:18:18.978Z,8.80
2019-05-22T09:20:23.147Z,7.93
2019-05-22T09:22:40.096Z,7.27
2019-05-22T09:24:34.118Z,7.67
2019-05-22T09:26:38.648Z,8.60
2019-05-22T09:28:42.537Z,8.07
2019-05-22T09:30:46.541Z,8.00
2019-05-22T09:32:50.618Z,8.17
2019-05-22T09:34:54.768Z,8.53
2019-05-22T09:36:58.430Z,8.03
2019-05-22T09:39:02.178Z,7.77
2019-05-22T09:41:06.151Z,7.57
2019-05-22T09:43:09.826Z,7.73
2019-05-22T09:45:15.006Z,7.87
2019-05-22T09:47:23.164Z,7.37
2019-05-22T09:49:27.438Z,7.37
2019-05-22T09:51:32.060Z,7.07
2019-05-22T09:53:38.027Z,7.00
2019-05-22T09:55:46.933Z,7.70
2019-05-22T09:57:47.855Z,8.07
2019-05-22T09:59:51.648Z,8.03
2019-05-22T10:01:55.433Z,6.90
2019-05-22T10:03:59.811Z,7.30
2019-05-22T10:06:04.680Z,7.40
2019-05-22T10:08:08.867Z,7.13
2019-05-22T10:10:13.468Z,6.57
2019-05-22T10:12:17.346Z,6.23
2019-05-22T10:14:21.371Z,6.70
2019-05-22T10:16:25.290Z,6.90
2019-05-22T10:18:29.124Z,6.43
2019-05-22T10:20:32.911Z,6.23
2019-05-22T10:22:37.475Z,7.13
2019-05-22T10:24:41.285Z,6.30
2019-05-22T10:26:45.459Z,5.70
2019-05-22T10:28:49.455Z,5.70
2019-05-22T10:30:54.450Z,6.23
2019-05-22T10:32:59.230Z,5.97
2019-05-22T10:35:03.251Z,5.97
2019-05-22T10:37:09.235Z,5.63
2019-05-22T10:39:13.021Z,7.03
2019-05-22T10:41:17.924Z,6.13
2019-05-22T10:43:21.803Z,5.33
2019-05-22T10:45:25.869Z,5.97
2019-05-22T10:47:30.015Z,5.47
2019-05-22T10:49:33.726Z,5.50
2019-05-22T10:51:38.037Z,4.50
2019-05-22T10:53:42.088Z,4.60
2019-05-22T10:55:45.957Z,4.93
2019-05-22T10:57:49.883Z,5.90
2019-05-22T10:59:53.554Z,4.70
2019-05-22T11:01:57.626Z,5.07
2019-05-22T11:04:01.727Z,4.80
2019-05-22T11:06:07.804Z,4.70
2019-05-22T11:08:11.617Z,4.50
2019-05-22T11:10:16.882Z,5.10
2019-05-22T11:12:20.775Z,5.23
2019-05-22T11:14:24.514Z,4.50
2019-05-22T11:16:28.643Z,5.00
2019-05-22T11:18:32.632Z,5.03
2019-05-22T11:20:37.140Z,5.17
2019-05-22T11:22:40.925Z,5.53
2019-05-22T11:24:44.801Z,4.90
2019-05-22T11:26:48.595Z,4.40
2019-05-22T11:28:53.153Z,5.27
2019-05-22T11:30:57.591Z,5.80
2019-05-22T11:33:01.961Z,4.70
2019-05-22T11:35:06.311Z,4.57
2019-05-22T11:37:10.478Z,4.57
2019-05-22T11:39:16.806Z,3.90
2019-05-22T11:41:20.654Z,4.07
2019-05-22T11:43:25.076Z,4.20
2019-05-22T11:45:29.744Z,3.87
2019-05-22T11:47:33.541Z,4.40
2019-05-22T11:49:37.419Z,3.77
2019-05-22T11:51:59.191Z,3.43
2019-05-22T11:54:09.138Z,3.70
2019-05-22T11:56:08.935Z,3.70
2019-05-22T11:58:12.781Z,2.97
2019-05-22T12:00:18.492Z,3.40
2019-05-22T12:02:23.474Z,3.67
2019-05-22T12:04:27.374Z,3.40
2019-05-22T12:06:31.580Z,2.67
2019-05-22T12:08:36.982Z,2.67
2019-05-22T12:10:41.322Z,3.00
2019-05-22T12:12:45.573Z,3.60
2019-05-22T12:14:49.729Z,3.00
2019-05-22T12:16:53.543Z,3.10
2019-05-22T12:18:58.924Z,2.73
2019-05-22T12:21:03.351Z,3.07
2019-05-22T12:23:07.307Z,2.60
2019-05-22T12:25:14.668Z,3.13
2019-05-22T12:27:18.461Z,2.80
2019-05-22T12:29:22.466Z,2.70
2019-05-22T12:31:26.371Z,2.90
2019-05-22T12:33:30.625Z,3.00
2019-05-22T12:35:35.728Z,2.97
2019-05-22T12:40:56.872Z,2.60
2019-05-22T12:43:01.433Z,2.77
2019-05-22T12:45:06.663Z,2.23
2019-05-22T12:47:11.550Z,2.77
2019-05-22T12:49:16.147Z,2.37
2019-05-22T12:51:21.065Z,2.40
2019-05-22T12:53:25.526Z,2.23
2019-05-22T12:55:29.559Z,2.70
2019-05-22T12:57:33.942Z,2.20
2019-05-22T12:59:38.401Z,2.10
2019-05-22T13:01:42.880Z,2.40
2019-05-22T13:03:48.421Z,2.60
2019-05-22T13:05:52.365Z,2.53
2019-05-22T13:07:56.950Z,2.27
2019-05-22T13:10:00.910Z,2.27
2019-05-22T13:12:05.463Z,2.37
2019-05-22T13:14:09.403Z,2.37
2019-05-22T13:16:14.101Z,2.60
2019-05-22T13:18:20.247Z,2.53
2019-05-22T13:20:41.767Z,2.87
2019-05-22T13:22:36.391Z,2.67
2019-05-22T13:24:40.753Z,2.47
2019-05-22T13:26:46.005Z,3.10
2019-05-22T13:28:49.950Z,2.87
2019-05-22T13:30:55.713Z,2.97
2019-05-22T13:33:01.699Z,2.90
2019-05-22T13:35:06.965Z,2.27
2019-05-22T13:37:12.286Z,3.20
2019-05-22T13:39:17.600Z,2.80
2019-05-22T13:41:21.593Z,2.97
2019-05-22T13:43:27.281Z,2.73
2019-05-22T13:45:32.411Z,2.53
2019-05-22T13:47:36.572Z,2.97
2019-05-22T13:49:41.128Z,2.50
2019-05-22T13:51:45.704Z,2.80
2019-05-22T13:53:50.212Z,2.73
2019-05-22T13:55:54.132Z,2.50
2019-05-22T13:57:58.619Z,2.40
2019-05-22T14:00:02.631Z,2.30
2019-05-22T14:02:06.578Z,2.20
2019-05-22T14:04:10.440Z,2.00
2019-05-22T14:06:15.505Z,2.40
2019-05-22T14:08:19.376Z,2.37
2019-05-22T14:10:26.865Z,2.70
2019-05-22T14:12:30.788Z,2.00
2019-05-22T14:14:34.501Z,2.43
2019-05-22T14:16:48.565Z,2.20
2019-05-22T14:18:45.133Z,2.10
2019-05-22T14:20:49.975Z,2.27
2019-05-22T14:22:53.948Z,2.60
2019-05-22T14:24:58.984Z,2.30
2019-05-22T14:27:03.063Z,2.23
2019-05-22T14:29:07.016Z,2.43
2019-05-22T14:31:11.020Z,2.77
2019-05-22T14:33:15.655Z,2.90
2019-05-22T14:35:20.059Z,2.57
2019-05-22T14:37:24.176Z,2.23
2019-05-22T14:39:29.415Z,2.27
2019-05-22T14:41:33.586Z,2.50
2019-05-22T14:43:38.450Z,2.17
2019-05-22T14:45:43.365Z,2.10
2019-05-22T14:47:47.522Z,2.00
2019-05-22T14:49:51.401Z,2.10
2019-05-22T14:51:56.663Z,2.47
2019-05-22T14:54:00.488Z,2.30
2019-05-22T14:56:04.870Z,2.50
2019-05-22T14:58:09.938Z,2.00
2019-05-22T15:00:19.534Z,2.23
2019-05-22T15:02:24.351Z,2.40
2019-05-22T15:04:29.934Z,2.07
2019-05-22T15:06:34.150Z,2.90
2019-05-22T15:08:38.210Z,2.70
2019-05-22T15:10:42.268Z,2.57
2019-05-22T15:12:46.256Z,2.80
2019-05-22T15:14:50.256Z,3.10
2019-05-22T15:16:53.962Z,2.50
2019-05-22T15:18:57.874Z,2.50
2019-05-22T15:21:05.966Z,2.97
2019-05-22T15:23:10.880Z,2.23
2019-05-22T15:25:15.134Z,2.63
2019-05-22T15:27:19.353Z,2.60
2019-05-22T15:29:23.217Z,2.13
2019-05-22T15:31:27.226Z,2.57
2019-05-22T15:33:31.783Z,1.90
2019-05-22T15:35:35.904Z,2.30
2019-05-22T15:37:40.915Z,2.30
2019-05-22T15:39:44.851Z,2.57
2019-05-22T15:41:49.319Z,2.27
2019-05-22T15:43:53.831Z,2.43
2019-05-22T15:45:58.930Z,2.70
2019-05-22T15:48:08.046Z,3.27
2019-05-22T15:50:13.066Z,4.00
2019-05-22T15:52:18.364Z,3.70
2019-05-22T15:54:23.257Z,3.50
2019-05-22T15:56:30.307Z,4.20
2019-05-22T15:58:34.990Z,3.37
2019-05-22T16:00:40.965Z,2.73
2019-05-22T16:02:48.743Z,2.40
2019-05-22T16:04:54.019Z,2.70
2019-05-22T16:06:58.759Z,2.50
2019-05-22T16:09:04.093Z,2.77
2019-05-22T16:11:10.853Z,3.23
2019-05-22T16:13:18.528Z,2.90
2019-05-22T16:15:25.129Z,3.23
2019-05-22T16:17:30.921Z,3.37
2019-05-22T16:19:36.683Z,3.77
2019-05-22T16:21:45.842Z,3.70
2019-05-22T16:23:50.443Z,3.77
2019-05-22T16:25:54.535Z,3.70
2019-05-22T16:27:59.435Z,3.70
2019-05-22T16:30:04.206Z,3.57
2019-05-22T16:32:10.071Z,3.67
2019-05-22T16:34:15.215Z,3.80
2019-05-22T16:36:20.810Z,3.80
2019-05-22T16:38:25.375Z,3.70
2019-05-22T16:40:29.834Z,4.00
2019-05-22T16:42:34.700Z,3.83
2019-05-22T16:44:41.470Z,3.70
2019-05-22T16:46:46.799Z,4.30
2019-05-22T16:48:51.881Z,3.60
2019-05-22T16:50:55.840Z,3.50
2019-05-22T16:53:02.486Z,2.90
2019-05-22T16:55:06.947Z,2.97
2019-05-22T16:57:11.486Z,3.10
2019-05-22T16:59:15.697Z,3.20
2019-05-22T17:01:21.677Z,3.00
2019-05-22T17:03:27.427Z,3.73
2019-05-22T17:05:31.812Z,2.93
2019-05-22T17:07:36.223Z,3.17
2019-05-22T17:09:41.782Z,3.60
2019-05-22T17:11:46.021Z,3.60
2019-05-22T17:13:50.781Z,4.00
2019-05-22T17:15:54.658Z,2.90
2019-05-22T17:17:58.641Z,2.70
2019-05-22T17:20:03.238Z,2.63
2019-05-22T17:22:07.755Z,2.40
2019-05-22T17:24:14.995Z,2.37
2019-05-22T17:26:19.198Z,2.60
2019-05-22T17:28:23.184Z,2.07
2019-05-22T17:30:28.370Z,2.30
2019-05-22T17:32:32.908Z,2.07
2019-05-22T17:34:38.348Z,1.90
2019-05-22T17:36:42.940Z,1.80
2019-05-22T17:38:46.906Z,2.27
2019-05-22T17:40:50.953Z,2.33
2019-05-22T17:42:59.169Z,2.30
2019-05-22T17:45:04.685Z,2.00
2019-05-22T17:47:10.382Z,2.43
2019-05-22T17:49:15.114Z,2.20
2019-05-22T17:51:19.965Z,2.40
2019-05-22T17:53:24.468Z,1.87
2019-05-22T17:55:28.673Z,2.47
2019-05-22T17:57:33.053Z,1.97
2019-05-22T17:59:36.781Z,1.70
2019-05-22T18:01:41.356Z,2.23
2019-05-22T18:03:45.425Z,1.97
2019-05-22T18:05:49.646Z,2.00
2019-05-22T18:07:53.782Z,1.93
2019-05-22T18:09:57.729Z,2.00
2019-05-22T18:12:01.918Z,1.90
2019-05-22T18:14:07.380Z,1.60
2019-05-22T18:16:11.562Z,1.50
2019-05-22T18:18:15.670Z,1.70
2019-05-22T18:20:20.044Z,1.60
2019-05-22T18:22:23.840Z,1.90
2019-05-22T18:24:27.719Z,1.63
2019-05-22T18:26:31.572Z,1.47
2019-05-22T18:28:36.390Z,1.90
2019-05-22T18:30:41.540Z,1.70
2019-05-22T18:32:45.426Z,2.07
2019-05-22T18:34:49.183Z,2.27
2019-05-22T18:36:53.006Z,2.20
2019-05-22T18:38:57.335Z,2.20
2019-05-22T18:41:01.134Z,2.30
2019-05-22T18:43:05.223Z,1.90
2019-05-22T18:45:10.201Z,1.53
2019-05-22T18:47:14.204Z,1.53
2019-05-22T18:49:18.091Z,1.90
2019-05-22T18:51:21.904Z,1.60
2019-05-22T18:53:25.785Z,1.97
2019-05-22T18:55:29.680Z,2.20
2019-05-22T18:57:35.524Z,1.90
2019-05-22T18:59:39.285Z,1.97
2019-05-22T19:01:43.158Z,2.40
2019-05-22T19:03:47.311Z,2.73
2019-05-22T19:05:51.255Z,2.60
2019-05-22T19:07:55.760Z,2.63
2019-05-22T19:09:59.662Z,2.20
2019-05-22T19:12:03.493Z,2.40
2019-05-22T19:14:07.457Z,2.90
2019-05-22T19:16:11.839Z,2.60
2019-05-22T19:18:15.882Z,2.90
2019-05-22T19:20:19.805Z,2.50
2019-05-22T19:22:25.075Z,2.83
2019-05-22T19:24:29.018Z,3.07
2019-05-22T19:29:23.311Z,3.00
2019-05-22T19:31:27.532Z,3.13
2019-05-22T19:33:31.326Z,2.73
2019-05-22T19:35:35.200Z,3.27
2019-05-22T19:37:39.668Z,3.20
2019-05-22T19:39:44.928Z,2.70
2019-05-22T19:42:01.456Z,3.00
2019-05-22T19:43:54.417Z,2.83
2019-05-22T19:45:58.327Z,3.03
2019-05-22T19:48:02.444Z,3.70
2019-05-22T19:50:22.330Z,3.70
2019-05-22T19:52:14.161Z,3.90
2019-05-22T19:54:18.400Z,3.40
2019-05-22T19:56:23.761Z,3.20
2019-05-22T19:58:28.214Z,3.93
2019-05-22T20:00:33.778Z,3.90
2019-05-22T20:02:37.575Z,3.27
2019-05-22T20:04:41.794Z,3.10
2019-05-22T20:06:45.659Z,3.37
2019-05-22T20:08:49.754Z,3.53
2019-05-22T20:10:53.631Z,3.70
2019-05-22T20:12:57.602Z,3.53
2019-05-22T20:15:01.612Z,3.60
2019-05-22T20:17:05.615Z,3.50
2019-05-22T20:19:10.561Z,3.37
2019-05-22T20:21:14.621Z,3.03
2019-05-22T20:23:32.961Z,3.47
2019-05-22T20:25:25.592Z,3.63
2019-05-22T20:27:29.495Z,3.27
2019-05-22T20:29:33.753Z,2.90
2019-05-22T20:31:37.786Z,2.70
2019-05-22T20:33:42.655Z,2.87
2019-05-22T20:35:46.470Z,2.50
2019-05-22T20:37:50.353Z,2.27
2019-05-22T20:39:54.216Z,1.97
2019-05-22T20:41:58.723Z,2.40
2019-05-22T20:44:03.791Z,2.60
2019-05-22T20:46:07.603Z,2.80
2019-05-22T20:48:17.259Z,2.50
2019-05-22T20:50:24.030Z,2.20
2019-05-22T20:52:29.909Z,2.00
2019-05-22T20:54:34.367Z,2.43
2019-05-22T20:56:40.324Z,2.40
2019-05-22T20:58:51.623Z,2.20
2019-05-22T21:00:55.934Z,2.93
2019-05-22T21:03:03.914Z,2.20
2019-05-22T21:05:11.354Z,2.57
2019-05-22T21:07:17.975Z,2.63
2019-05-22T21:09:22.681Z,3.33
2019-05-22T21:11:27.158Z,2.57
2019-05-22T21:13:30.967Z,2.57
2019-05-22T21:15:35.107Z,3.57
2019-05-22T21:17:39.560Z,2.63
2019-05-22T21:19:43.680Z,2.10
2019-05-22T21:21:48.222Z,2.33
2019-05-22T21:23:52.597Z,2.20
2019-05-22T21:25:56.583Z,2.30
2019-05-22T21:28:00.976Z,2.47
2019-05-22T21:30:07.255Z,2.20
2019-05-22T21:32:11.732Z,2.50
2019-05-22T21:34:15.995Z,2.40
2019-05-22T21:36:20.393Z,1.93
2019-05-22T21:38:24.622Z,2.53
2019-05-22T21:40:28.485Z,2.20
2019-05-22T21:42:32.471Z,2.43
2019-05-22T21:44:37.149Z,2.70
2019-05-22T21:46:41.961Z,2.50
2019-05-22T21:48:48.123Z,2.40
2019-05-22T21:50:51.991Z,2.60
2019-05-22T21:52:56.377Z,2.90
2019-05-22T21:55:00.312Z,2.87
2019-05-22T21:57:06.790Z,2.30
2019-05-22T21:59:11.733Z,2.73
2019-05-22T22:01:29.973Z,2.80
2019-05-22T22:03:40.728Z,2.50
2019-05-22T22:05:45.950Z,2.60
2019-05-22T22:07:50.271Z,2.53
2019-05-22T22:09:54.084Z,2.50
2019-05-22T22:11:58.499Z,2.43
2019-05-22T22:14:02.315Z,2.30
2019-05-22T22:16:07.564Z,2.67
2019-05-22T22:18:12.068Z,2.70
2019-05-22T22:20:16.661Z,2.23
2019-05-22T22:22:28.205Z,2.77
2019-05-22T22:24:32.199Z,2.67
2019-05-22T22:26:36.349Z,2.33
2019-05-22T22:28:40.533Z,2.43
2019-05-22T22:30:49.989Z,2.60
2019-05-22T22:32:55.974Z,2.67
2019-05-22T22:34:59.803Z,2.40
2019-05-22T22:37:04.047Z,2.50
2019-05-22T22:39:11.834Z,2.10
2019-05-22T22:41:16.472Z,2.47
2019-05-22T22:43:21.689Z,2.40
2019-05-22T22:45:38.839Z,2.43
2019-05-22T22:47:44.582Z,3.17
2019-05-22T22:49:48.885Z,2.80
2019-05-22T22:51:53.118Z,2.50
2019-05-22T22:53:57.382Z,2.30
2019-05-22T22:56:02.302Z,2.70
2019-05-22T22:58:17.340Z,2.67
2019-05-22T23:00:17.079Z,2.80
2019-05-22T23:02:24.285Z,2.87
2019-05-22T23:04:29.571Z,2.53
2019-05-22T23:06:36.364Z,3.03
2019-05-22T23:08:40.719Z,2.80
2019-05-22T23:10:47.346Z,2.43
2019-05-22T23:12:54.198Z,2.90
2019-05-22T23:15:01.771Z,2.10
2019-05-22T23:17:06.876Z,2.37
2019-05-22T23:19:32.005Z,3.40
2019-05-22T23:21:35.999Z,2.67
2019-05-22T23:23:38.722Z,2.80
2019-05-22T23:25:43.064Z,3.27
2019-05-22T23:27:46.977Z,2.73
2019-05-22T23:29:51.549Z,3.40
2019-05-22T23:31:56.811Z,3.93
2019-05-22T23:34:01.833Z,3.90
2019-05-22T23:36:05.832Z,3.23
2019-05-22T23:38:09.767Z,3.70
2019-05-22T23:40:18.542Z,3.50
2019-05-22T23:42:29.628Z,3.53
2019-05-22T23:44:35.763Z,3.43
2019-05-22T23:46:39.742Z,3.17
2019-05-22T23:48:43.698Z,3.37
2019-05-22T23:50:49.919Z,3.33
2019-05-22T23:52:54.187Z,3.50
2019-05-22T23:54:59.352Z,3.30
2019-05-22T23:57:03.174Z,2.53
2019-05-22T23:59:07.226Z,2.77
